sensor_id;sensor_type;location;lat;lon;timestamp;P1;durP1;ratioP1;P2;durP2;ratioP2
34497;SDS011;20744;50.938;7.286;2022-08-19T00:00:09;25.95;;;22.08;;
34497;SDS011;20744;50.938;7.286;2022-08-19T00:02:42;24.27;;;21.67;;
34497;SDS011;20744;50.938;7.286;2022-08-19T00:05:11;25.70;;;22.00;;
34497;SDS011;20744;50.938;7.286;2022-08-19T00:07:38;22.80;;;20.60;;
34497;SDS011;20744;50.938;7.286;2022-08-19T00:10:06;27.00;;;21.50;;
34497;SDS011;20744;50.938;7.286;2022-08-19T00:12:34;24.38;;;21.65;;
34497;SDS011;20744;50.938;7.286;2022-08-19T00:15:03;24.35;;;21.95;;
34497;SDS011;20744;50.938;7.286;2022-08-19T00:17:30;26.15;;;22.23;;
34497;SDS011;20744;50.938;7.286;2022-08-19T00:19:59;25.40;;;22.75;;
34497;SDS011;20744;50.938;7.286;2022-08-19T00:22:26;28.50;;;22.95;;
34497;SDS011;20744;50.938;7.286;2022-08-19T00:24:53;26.05;;;23.35;;
34497;SDS011;20744;50.938;7.286;2022-08-19T00:27:20;25.35;;;22.73;;
34497;SDS011;20744;50.938;7.286;2022-08-19T00:29:48;29.30;;;23.10;;
34497;SDS011;20744;50.938;7.286;2022-08-19T00:32:16;26.25;;;23.23;;
34497;SDS011;20744;50.938;7.286;2022-08-19T00:34:43;26.00;;;21.70;;
34497;SDS011;20744;50.938;7.286;2022-08-19T00:37:12;26.00;;;23.20;;
34497;SDS011;20744;50.938;7.286;2022-08-19T00:39:39;25.25;;;22.58;;
34497;SDS011;20744;50.938;7.286;2022-08-19T00:42:07;25.63;;;22.92;;
34497;SDS011;20744;50.938;7.286;2022-08-19T00:44:34;26.77;;;24.02;;
34497;SDS011;20744;50.938;7.286;2022-08-19T00:47:01;25.90;;;23.30;;
34497;SDS011;20744;50.938;7.286;2022-08-19T00:49:29;26.98;;;23.83;;
34497;SDS011;20744;50.938;7.286;2022-08-19T00:51:59;29.25;;;24.15;;
34497;SDS011;20744;50.938;7.286;2022-08-19T00:54:28;27.75;;;24.90;;
34497;SDS011;20744;50.938;7.286;2022-08-19T00:56:56;27.55;;;24.65;;
34497;SDS011;20744;50.938;7.286;2022-08-19T00:59:24;28.33;;;24.45;;
34497;SDS011;20744;50.938;7.286;2022-08-19T01:01:51;26.30;;;23.55;;
34497;SDS011;20744;50.938;7.286;2022-08-19T01:04:19;26.77;;;24.08;;
34497;SDS011;20744;50.938;7.286;2022-08-19T01:06:46;28.67;;;24.23;;
34497;SDS011;20744;50.938;7.286;2022-08-19T01:09:13;26.83;;;24.02;;
34497;SDS011;20744;50.938;7.286;2022-08-19T01:11:43;26.27;;;23.38;;
34497;SDS011;20744;50.938;7.286;2022-08-19T01:14:11;27.85;;;24.88;;
34497;SDS011;20744;50.938;7.286;2022-08-19T01:16:39;26.10;;;23.00;;
34497;SDS011;20744;50.938;7.286;2022-08-19T01:19:09;29.98;;;25.08;;
34497;SDS011;20744;50.938;7.286;2022-08-19T01:21:39;26.15;;;23.13;;
34497;SDS011;20744;50.938;7.286;2022-08-19T01:24:09;25.00;;;22.52;;
34497;SDS011;20744;50.938;7.286;2022-08-19T01:26:37;25.45;;;22.90;;
34497;SDS011;20744;50.938;7.286;2022-08-19T01:29:06;24.65;;;21.92;;
34497;SDS011;20744;50.938;7.286;2022-08-19T01:31:34;23.58;;;21.00;;
34497;SDS011;20744;50.938;7.286;2022-08-19T01:34:02;23.45;;;21.13;;
34497;SDS011;20744;50.938;7.286;2022-08-19T01:36:31;23.75;;;21.35;;
34497;SDS011;20744;50.938;7.286;2022-08-19T01:38:58;25.20;;;22.48;;
34497;SDS011;20744;50.938;7.286;2022-08-19T01:41:27;25.05;;;22.52;;
34497;SDS011;20744;50.938;7.286;2022-08-19T01:43:54;23.45;;;21.05;;
34497;SDS011;20744;50.938;7.286;2022-08-19T01:46:22;24.13;;;21.77;;
34497;SDS011;20744;50.938;7.286;2022-08-19T01:48:49;25.27;;;21.73;;
34497;SDS011;20744;50.938;7.286;2022-08-19T01:51:17;25.45;;;22.75;;
34497;SDS011;20744;50.938;7.286;2022-08-19T01:53:46;27.08;;;23.15;;
34497;SDS011;20744;50.938;7.286;2022-08-19T01:56:14;26.50;;;23.80;;
34497;SDS011;20744;50.938;7.286;2022-08-19T01:58:45;27.35;;;24.45;;
34497;SDS011;20744;50.938;7.286;2022-08-19T02:01:14;26.48;;;23.88;;
34497;SDS011;20744;50.938;7.286;2022-08-19T02:03:41;28.63;;;25.42;;
34497;SDS011;20744;50.938;7.286;2022-08-19T02:06:09;26.60;;;23.88;;
34497;SDS011;20744;50.938;7.286;2022-08-19T02:08:37;28.02;;;25.13;;
34497;SDS011;20744;50.938;7.286;2022-08-19T02:11:05;28.45;;;25.58;;
34497;SDS011;20744;50.938;7.286;2022-08-19T02:13:33;29.08;;;25.80;;
34497;SDS011;20744;50.938;7.286;2022-08-19T02:16:02;29.42;;;26.17;;
34497;SDS011;20744;50.938;7.286;2022-08-19T02:18:29;29.02;;;25.95;;
34497;SDS011;20744;50.938;7.286;2022-08-19T02:20:56;28.05;;;24.77;;
34497;SDS011;20744;50.938;7.286;2022-08-19T02:23:23;28.77;;;25.77;;
34497;SDS011;20744;50.938;7.286;2022-08-19T02:25:52;27.30;;;24.40;;
34497;SDS011;20744;50.938;7.286;2022-08-19T02:28:19;28.77;;;25.65;;
34497;SDS011;20744;50.938;7.286;2022-08-19T02:30:46;29.13;;;26.08;;
34497;SDS011;20744;50.938;7.286;2022-08-19T02:33:16;29.67;;;26.00;;
34497;SDS011;20744;50.938;7.286;2022-08-19T02:35:43;29.67;;;26.50;;
34497;SDS011;20744;50.938;7.286;2022-08-19T02:38:11;29.20;;;26.10;;
34497;SDS011;20744;50.938;7.286;2022-08-19T02:40:54;29.40;;;25.92;;
34497;SDS011;20744;50.938;7.286;2022-08-19T02:43:22;29.23;;;26.08;;
34497;SDS011;20744;50.938;7.286;2022-08-19T02:45:51;32.17;;;25.38;;
34497;SDS011;20744;50.938;7.286;2022-08-19T02:48:20;27.40;;;24.50;;
34497;SDS011;20744;50.938;7.286;2022-08-19T02:50:48;28.50;;;25.40;;
34497;SDS011;20744;50.938;7.286;2022-08-19T02:53:19;29.27;;;26.35;;
34497;SDS011;20744;50.938;7.286;2022-08-19T02:55:47;29.70;;;26.55;;
34497;SDS011;20744;50.938;7.286;2022-08-19T02:58:15;33.42;;;28.27;;
34497;SDS011;20744;50.938;7.286;2022-08-19T03:00:43;29.30;;;25.95;;
34497;SDS011;20744;50.938;7.286;2022-08-19T03:03:11;28.67;;;25.90;;
34497;SDS011;20744;50.938;7.286;2022-08-19T03:05:40;29.67;;;26.42;;
34497;SDS011;20744;50.938;7.286;2022-08-19T03:08:07;30.02;;;26.88;;
34497;SDS011;20744;50.938;7.286;2022-08-19T03:10:39;30.35;;;27.23;;
34497;SDS011;20744;50.938;7.286;2022-08-19T03:13:09;29.92;;;26.95;;
34497;SDS011;20744;50.938;7.286;2022-08-19T03:15:38;28.65;;;25.83;;
34497;SDS011;20744;50.938;7.286;2022-08-19T03:18:05;29.13;;;26.10;;
34497;SDS011;20744;50.938;7.286;2022-08-19T03:20:33;30.05;;;26.80;;
34497;SDS011;20744;50.938;7.286;2022-08-19T03:23:01;30.35;;;26.27;;
34497;SDS011;20744;50.938;7.286;2022-08-19T03:25:28;30.50;;;27.25;;
34497;SDS011;20744;50.938;7.286;2022-08-19T03:27:56;30.20;;;26.88;;
34497;SDS011;20744;50.938;7.286;2022-08-19T03:30:23;32.33;;;26.98;;
34497;SDS011;20744;50.938;7.286;2022-08-19T03:32:50;31.05;;;26.98;;
34497;SDS011;20744;50.938;7.286;2022-08-19T03:35:17;29.67;;;26.13;;
34497;SDS011;20744;50.938;7.286;2022-08-19T03:37:45;28.80;;;25.67;;
34497;SDS011;20744;50.938;7.286;2022-08-19T03:40:14;29.25;;;26.00;;
34497;SDS011;20744;50.938;7.286;2022-08-19T03:42:41;30.25;;;26.98;;
34497;SDS011;20744;50.938;7.286;2022-08-19T03:45:08;36.47;;;28.45;;
34497;SDS011;20744;50.938;7.286;2022-08-19T03:47:36;33.28;;;28.13;;
34497;SDS011;20744;50.938;7.286;2022-08-19T03:50:03;33.90;;;28.35;;
34497;SDS011;20744;50.938;7.286;2022-08-19T03:52:31;31.13;;;27.27;;
34497;SDS011;20744;50.938;7.286;2022-08-19T03:54:58;29.60;;;26.17;;
34497;SDS011;20744;50.938;7.286;2022-08-19T03:57:27;29.80;;;26.60;;
34497;SDS011;20744;50.938;7.286;2022-08-19T03:59:54;28.48;;;25.42;;
34497;SDS011;20744;50.938;7.286;2022-08-19T04:02:21;34.95;;;26.63;;
34497;SDS011;20744;50.938;7.286;2022-08-19T04:04:49;32.75;;;26.42;;
34497;SDS011;20744;50.938;7.286;2022-08-19T04:07:20;27.70;;;24.45;;
34497;SDS011;20744;50.938;7.286;2022-08-19T04:09:47;32.33;;;25.67;;
34497;SDS011;20744;50.938;7.286;2022-08-19T04:12:17;32.15;;;26.33;;
34497;SDS011;20744;50.938;7.286;2022-08-19T04:14:46;36.30;;;26.75;;
34497;SDS011;20744;50.938;7.286;2022-08-19T04:17:13;31.17;;;27.73;;
34497;SDS011;20744;50.938;7.286;2022-08-19T04:19:40;31.08;;;27.77;;
34497;SDS011;20744;50.938;7.286;2022-08-19T04:22:08;38.72;;;27.15;;
34497;SDS011;20744;50.938;7.286;2022-08-19T04:24:36;34.03;;;27.80;;
34497;SDS011;20744;50.938;7.286;2022-08-19T04:27:04;31.40;;;27.88;;
34497;SDS011;20744;50.938;7.286;2022-08-19T04:29:32;32.03;;;27.27;;
34497;SDS011;20744;50.938;7.286;2022-08-19T04:32:00;31.13;;;27.20;;
34497;SDS011;20744;50.938;7.286;2022-08-19T04:34:28;34.80;;;27.92;;
34497;SDS011;20744;50.938;7.286;2022-08-19T04:36:56;37.83;;;30.38;;
34497;SDS011;20744;50.938;7.286;2022-08-19T04:39:24;34.67;;;29.42;;
34497;SDS011;20744;50.938;7.286;2022-08-19T04:42:13;33.45;;;28.05;;
34497;SDS011;20744;50.938;7.286;2022-08-19T04:44:59;37.08;;;29.77;;
34497;SDS011;20744;50.938;7.286;2022-08-19T04:47:29;36.17;;;29.25;;
34497;SDS011;20744;50.938;7.286;2022-08-19T04:49:57;33.92;;;27.73;;
34497;SDS011;20744;50.938;7.286;2022-08-19T04:52:25;35.67;;;26.95;;
34497;SDS011;20744;50.938;7.286;2022-08-19T04:54:52;33.75;;;27.52;;
34497;SDS011;20744;50.938;7.286;2022-08-19T04:57:20;31.55;;;27.17;;
34497;SDS011;20744;50.938;7.286;2022-08-19T04:59:47;34.33;;;29.35;;
34497;SDS011;20744;50.938;7.286;2022-08-19T05:02:15;33.58;;;28.00;;
34497;SDS011;20744;50.938;7.286;2022-08-19T05:04:44;31.45;;;26.15;;
34497;SDS011;20744;50.938;7.286;2022-08-19T05:07:11;34.25;;;27.75;;
34497;SDS011;20744;50.938;7.286;2022-08-19T05:09:38;30.98;;;27.70;;
34497;SDS011;20744;50.938;7.286;2022-08-19T05:12:06;33.38;;;28.92;;
34497;SDS011;20744;50.938;7.286;2022-08-19T05:14:33;33.22;;;28.05;;
34497;SDS011;20744;50.938;7.286;2022-08-19T05:17:01;37.17;;;29.73;;
34497;SDS011;20744;50.938;7.286;2022-08-19T05:19:28;34.38;;;29.13;;
34497;SDS011;20744;50.938;7.286;2022-08-19T05:22:14;34.40;;;29.40;;
34497;SDS011;20744;50.938;7.286;2022-08-19T05:25:00;42.65;;;30.75;;
34497;SDS011;20744;50.938;7.286;2022-08-19T05:27:28;44.58;;;30.67;;
34497;SDS011;20744;50.938;7.286;2022-08-19T05:29:55;35.92;;;30.15;;
34497;SDS011;20744;50.938;7.286;2022-08-19T05:32:22;35.38;;;28.70;;
34497;SDS011;20744;50.938;7.286;2022-08-19T05:34:49;37.83;;;28.65;;
34497;SDS011;20744;50.938;7.286;2022-08-19T05:37:18;37.40;;;26.20;;
34497;SDS011;20744;50.938;7.286;2022-08-19T05:39:46;42.90;;;26.65;;
34497;SDS011;20744;50.938;7.286;2022-08-19T05:42:14;41.00;;;27.35;;
34497;SDS011;20744;50.938;7.286;2022-08-19T05:44:42;38.67;;;27.40;;
34497;SDS011;20744;50.938;7.286;2022-08-19T05:47:10;42.55;;;27.90;;
34497;SDS011;20744;50.938;7.286;2022-08-19T05:49:37;39.28;;;28.23;;
34497;SDS011;20744;50.938;7.286;2022-08-19T05:52:06;42.08;;;28.20;;
34497;SDS011;20744;50.938;7.286;2022-08-19T05:54:36;34.90;;;27.88;;
34497;SDS011;20744;50.938;7.286;2022-08-19T05:57:05;35.72;;;26.73;;
34497;SDS011;20744;50.938;7.286;2022-08-19T05:59:33;41.42;;;27.65;;
34497;SDS011;20744;50.938;7.286;2022-08-19T06:02:01;31.80;;;26.63;;
34497;SDS011;20744;50.938;7.286;2022-08-19T06:04:29;30.25;;;26.60;;
34497;SDS011;20744;50.938;7.286;2022-08-19T06:06:56;37.90;;;27.25;;
34497;SDS011;20744;50.938;7.286;2022-08-19T06:09:24;38.35;;;27.50;;
34497;SDS011;20744;50.938;7.286;2022-08-19T06:11:53;31.40;;;25.83;;
34497;SDS011;20744;50.938;7.286;2022-08-19T06:14:27;33.15;;;25.15;;
34497;SDS011;20744;50.938;7.286;2022-08-19T06:16:55;32.67;;;25.83;;
34497;SDS011;20744;50.938;7.286;2022-08-19T06:19:25;32.17;;;26.58;;
34497;SDS011;20744;50.938;7.286;2022-08-19T06:21:54;35.15;;;27.30;;
34497;SDS011;20744;50.938;7.286;2022-08-19T06:24:24;30.77;;;25.08;;
34497;SDS011;20744;50.938;7.286;2022-08-19T06:26:53;29.67;;;25.83;;
34497;SDS011;20744;50.938;7.286;2022-08-19T06:29:22;32.55;;;24.73;;
34497;SDS011;20744;50.938;7.286;2022-08-19T06:31:50;31.55;;;25.63;;
34497;SDS011;20744;50.938;7.286;2022-08-19T06:34:18;34.20;;;24.65;;
34497;SDS011;20744;50.938;7.286;2022-08-19T06:36:47;33.22;;;23.92;;
34497;SDS011;20744;50.938;7.286;2022-08-19T06:39:15;31.38;;;23.58;;
34497;SDS011;20744;50.938;7.286;2022-08-19T06:41:44;29.85;;;22.92;;
34497;SDS011;20744;50.938;7.286;2022-08-19T06:44:14;30.95;;;25.90;;
34497;SDS011;20744;50.938;7.286;2022-08-19T06:46:41;36.42;;;23.85;;
34497;SDS011;20744;50.938;7.286;2022-08-19T06:49:09;32.60;;;24.40;;
34497;SDS011;20744;50.938;7.286;2022-08-19T06:51:39;26.92;;;24.10;;
34497;SDS011;20744;50.938;7.286;2022-08-19T06:54:06;31.40;;;23.52;;
34497;SDS011;20744;50.938;7.286;2022-08-19T06:56:33;31.05;;;24.25;;
34497;SDS011;20744;50.938;7.286;2022-08-19T06:59:02;28.15;;;23.27;;
34497;SDS011;20744;50.938;7.286;2022-08-19T07:01:31;29.00;;;24.75;;
34497;SDS011;20744;50.938;7.286;2022-08-19T07:04:02;31.35;;;26.95;;
34497;SDS011;20744;50.938;7.286;2022-08-19T07:06:29;30.10;;;25.23;;
34497;SDS011;20744;50.938;7.286;2022-08-19T07:08:57;31.83;;;27.50;;
34497;SDS011;20744;50.938;7.286;2022-08-19T07:11:24;39.63;;;28.70;;
34497;SDS011;20744;50.938;7.286;2022-08-19T07:13:51;34.05;;;28.98;;
34497;SDS011;20744;50.938;7.286;2022-08-19T07:16:19;29.02;;;23.95;;
34497;SDS011;20744;50.938;7.286;2022-08-19T07:18:48;32.03;;;26.77;;
34497;SDS011;20744;50.938;7.286;2022-08-19T07:21:17;34.10;;;26.00;;
34497;SDS011;20744;50.938;7.286;2022-08-19T07:23:46;34.63;;;28.02;;
34497;SDS011;20744;50.938;7.286;2022-08-19T07:26:15;40.35;;;31.98;;
34497;SDS011;20744;50.938;7.286;2022-08-19T07:28:42;45.40;;;31.70;;
34497;SDS011;20744;50.938;7.286;2022-08-19T07:31:10;40.90;;;34.00;;
34497;SDS011;20744;50.938;7.286;2022-08-19T07:33:38;41.92;;;32.03;;
34497;SDS011;20744;50.938;7.286;2022-08-19T07:36:07;35.88;;;31.58;;
34497;SDS011;20744;50.938;7.286;2022-08-19T07:38:37;35.40;;;30.70;;
34497;SDS011;20744;50.938;7.286;2022-08-19T07:41:05;36.22;;;29.58;;
34497;SDS011;20744;50.938;7.286;2022-08-19T07:43:33;38.22;;;30.60;;
34497;SDS011;20744;50.938;7.286;2022-08-19T07:46:00;34.40;;;29.17;;
34497;SDS011;20744;50.938;7.286;2022-08-19T07:48:27;33.40;;;27.90;;
34497;SDS011;20744;50.938;7.286;2022-08-19T07:50:56;29.80;;;26.58;;
34497;SDS011;20744;50.938;7.286;2022-08-19T07:53:29;34.05;;;26.52;;
34497;SDS011;20744;50.938;7.286;2022-08-19T07:55:57;28.30;;;24.80;;
34497;SDS011;20744;50.938;7.286;2022-08-19T07:58:29;31.95;;;26.80;;
34497;SDS011;20744;50.938;7.286;2022-08-19T08:00:57;28.88;;;24.83;;
34497;SDS011;20744;50.938;7.286;2022-08-19T08:03:25;24.25;;;20.92;;
34497;SDS011;20744;50.938;7.286;2022-08-19T08:06:06;29.70;;;25.02;;
34497;SDS011;20744;50.938;7.286;2022-08-19T08:08:52;31.20;;;23.17;;
34497;SDS011;20744;50.938;7.286;2022-08-19T08:11:42;29.30;;;23.58;;
34497;SDS011;20744;50.938;7.286;2022-08-19T08:14:15;27.17;;;22.52;;
34497;SDS011;20744;50.938;7.286;2022-08-19T08:16:42;30.25;;;23.70;;
34497;SDS011;20744;50.938;7.286;2022-08-19T08:19:10;28.02;;;25.02;;
34497;SDS011;20744;50.938;7.286;2022-08-19T08:21:40;33.67;;;24.20;;
34497;SDS011;20744;50.938;7.286;2022-08-19T08:24:09;33.78;;;25.92;;
34497;SDS011;20744;50.938;7.286;2022-08-19T08:26:37;35.50;;;27.90;;
34497;SDS011;20744;50.938;7.286;2022-08-19T08:29:04;27.00;;;21.77;;
34497;SDS011;20744;50.938;7.286;2022-08-19T08:31:32;35.08;;;29.45;;
34497;SDS011;20744;50.938;7.286;2022-08-19T08:34:00;33.17;;;28.15;;
34497;SDS011;20744;50.938;7.286;2022-08-19T08:36:27;34.72;;;29.58;;
34497;SDS011;20744;50.938;7.286;2022-08-19T08:38:58;38.92;;;31.10;;
34497;SDS011;20744;50.938;7.286;2022-08-19T08:41:28;36.20;;;28.23;;
34497;SDS011;20744;50.938;7.286;2022-08-19T08:43:58;38.15;;;30.83;;
34497;SDS011;20744;50.938;7.286;2022-08-19T08:46:29;34.75;;;28.30;;
34497;SDS011;20744;50.938;7.286;2022-08-19T08:48:59;33.78;;;28.15;;
34497;SDS011;20744;50.938;7.286;2022-08-19T08:51:28;31.70;;;24.77;;
34497;SDS011;20744;50.938;7.286;2022-08-19T08:53:59;29.45;;;24.70;;
34497;SDS011;20744;50.938;7.286;2022-08-19T08:56:28;27.88;;;24.15;;
34497;SDS011;20744;50.938;7.286;2022-08-19T08:58:58;26.35;;;23.55;;
34497;SDS011;20744;50.938;7.286;2022-08-19T09:01:26;33.50;;;24.63;;
34497;SDS011;20744;50.938;7.286;2022-08-19T09:03:54;31.65;;;24.70;;
34497;SDS011;20744;50.938;7.286;2022-08-19T09:06:22;32.53;;;26.33;;
34497;SDS011;20744;50.938;7.286;2022-08-19T09:09:03;26.77;;;21.83;;
34497;SDS011;20744;50.938;7.286;2022-08-19T09:11:36;36.08;;;22.83;;
34497;SDS011;20744;50.938;7.286;2022-08-19T09:14:08;29.48;;;20.88;;
34497;SDS011;20744;50.938;7.286;2022-08-19T09:16:39;28.63;;;21.25;;
34497;SDS011;20744;50.938;7.286;2022-08-19T09:19:07;23.95;;;17.30;;
34497;SDS011;20744;50.938;7.286;2022-08-19T09:21:35;21.65;;;16.02;;
34497;SDS011;20744;50.938;7.286;2022-08-19T09:24:03;19.20;;;13.25;;
34497;SDS011;20744;50.938;7.286;2022-08-19T09:26:31;19.38;;;14.38;;
34497;SDS011;20744;50.938;7.286;2022-08-19T09:29:01;19.80;;;13.93;;
34497;SDS011;20744;50.938;7.286;2022-08-19T09:31:30;23.20;;;11.73;;
34497;SDS011;20744;50.938;7.286;2022-08-19T09:33:58;20.92;;;13.82;;
34497;SDS011;20744;50.938;7.286;2022-08-19T09:36:28;17.60;;;12.73;;
34497;SDS011;20744;50.938;7.286;2022-08-19T09:38:58;14.55;;;10.85;;
34497;SDS011;20744;50.938;7.286;2022-08-19T09:41:26;15.98;;;12.13;;
34497;SDS011;20744;50.938;7.286;2022-08-19T09:43:54;19.27;;;11.43;;
34497;SDS011;20744;50.938;7.286;2022-08-19T09:46:24;14.63;;;8.73;;
34497;SDS011;20744;50.938;7.286;2022-08-19T09:48:51;12.57;;;8.30;;
34497;SDS011;20744;50.938;7.286;2022-08-19T09:51:20;16.27;;;10.70;;
34497;SDS011;20744;50.938;7.286;2022-08-19T09:53:47;27.85;;;8.77;;
34497;SDS011;20744;50.938;7.286;2022-08-19T09:56:16;13.77;;;8.57;;
34497;SDS011;20744;50.938;7.286;2022-08-19T09:58:43;12.02;;;9.13;;
34497;SDS011;20744;50.938;7.286;2022-08-19T10:01:15;13.88;;;9.88;;
34497;SDS011;20744;50.938;7.286;2022-08-19T10:03:46;12.70;;;8.65;;
34497;SDS011;20744;50.938;7.286;2022-08-19T10:06:13;11.10;;;8.65;;
34497;SDS011;20744;50.938;7.286;2022-08-19T10:08:41;14.02;;;11.52;;
34497;SDS011;20744;50.938;7.286;2022-08-19T10:11:08;15.60;;;9.40;;
34497;SDS011;20744;50.938;7.286;2022-08-19T10:13:36;18.80;;;13.93;;
34497;SDS011;20744;50.938;7.286;2022-08-19T10:16:04;16.90;;;12.85;;
34497;SDS011;20744;50.938;7.286;2022-08-19T10:18:32;21.98;;;16.25;;
34497;SDS011;20744;50.938;7.286;2022-08-19T10:21:06;15.93;;;11.95;;
34497;SDS011;20744;50.938;7.286;2022-08-19T10:23:34;19.17;;;13.75;;
34497;SDS011;20744;50.938;7.286;2022-08-19T10:26:02;23.45;;;14.88;;
34497;SDS011;20744;50.938;7.286;2022-08-19T10:28:31;19.45;;;15.43;;
34497;SDS011;20744;50.938;7.286;2022-08-19T10:31:02;15.57;;;11.73;;
34497;SDS011;20744;50.938;7.286;2022-08-19T10:33:31;15.48;;;10.10;;
34497;SDS011;20744;50.938;7.286;2022-08-19T10:35:59;18.60;;;14.18;;
34497;SDS011;20744;50.938;7.286;2022-08-19T10:38:27;19.90;;;17.25;;
34497;SDS011;20744;50.938;7.286;2022-08-19T10:40:55;24.63;;;17.52;;
34497;SDS011;20744;50.938;7.286;2022-08-19T10:43:22;22.70;;;18.05;;
34497;SDS011;20744;50.938;7.286;2022-08-19T10:45:54;25.30;;;18.42;;
34497;SDS011;20744;50.938;7.286;2022-08-19T10:48:24;19.98;;;17.77;;
34497;SDS011;20744;50.938;7.286;2022-08-19T10:50:51;25.10;;;18.52;;
34497;SDS011;20744;50.938;7.286;2022-08-19T10:53:37;21.95;;;17.52;;
34497;SDS011;20744;50.938;7.286;2022-08-19T10:56:05;22.20;;;18.58;;
34497;SDS011;20744;50.938;7.286;2022-08-19T10:58:49;22.55;;;15.63;;
34497;SDS011;20744;50.938;7.286;2022-08-19T11:01:17;23.40;;;17.40;;
34497;SDS011;20744;50.938;7.286;2022-08-19T11:03:45;22.98;;;17.73;;
34497;SDS011;20744;50.938;7.286;2022-08-19T11:06:12;17.98;;;16.00;;
34497;SDS011;20744;50.938;7.286;2022-08-19T11:08:41;20.20;;;12.50;;
34497;SDS011;20744;50.938;7.286;2022-08-19T11:11:11;18.42;;;16.02;;
34497;SDS011;20744;50.938;7.286;2022-08-19T11:13:39;15.75;;;12.93;;
34497;SDS011;20744;50.938;7.286;2022-08-19T11:16:09;22.17;;;15.63;;
34497;SDS011;20744;50.938;7.286;2022-08-19T11:18:40;17.58;;;11.88;;
34497;SDS011;20744;50.938;7.286;2022-08-19T11:21:09;16.55;;;13.65;;
34497;SDS011;20744;50.938;7.286;2022-08-19T11:23:37;15.98;;;13.93;;
34497;SDS011;20744;50.938;7.286;2022-08-19T11:26:06;18.08;;;14.05;;
34497;SDS011;20744;50.938;7.286;2022-08-19T11:28:33;17.08;;;11.52;;
34497;SDS011;20744;50.938;7.286;2022-08-19T11:31:00;16.10;;;12.43;;
34497;SDS011;20744;50.938;7.286;2022-08-19T11:33:29;13.90;;;10.73;;
34497;SDS011;20744;50.938;7.286;2022-08-19T11:35:56;16.13;;;12.18;;
34497;SDS011;20744;50.938;7.286;2022-08-19T11:38:25;17.55;;;11.82;;
34497;SDS011;20744;50.938;7.286;2022-08-19T11:40:55;17.30;;;12.20;;
34497;SDS011;20744;50.938;7.286;2022-08-19T11:43:24;16.02;;;12.07;;
34497;SDS011;20744;50.938;7.286;2022-08-19T11:45:52;13.30;;;10.30;;
34497;SDS011;20744;50.938;7.286;2022-08-19T11:48:19;16.75;;;11.27;;
34497;SDS011;20744;50.938;7.286;2022-08-19T11:50:47;12.00;;;8.65;;
34497;SDS011;20744;50.938;7.286;2022-08-19T11:53:15;12.52;;;8.75;;
34497;SDS011;20744;50.938;7.286;2022-08-19T11:55:43;11.88;;;8.60;;
34497;SDS011;20744;50.938;7.286;2022-08-19T11:58:10;14.25;;;9.82;;
34497;SDS011;20744;50.938;7.286;2022-08-19T12:00:39;17.33;;;11.68;;
34497;SDS011;20744;50.938;7.286;2022-08-19T12:03:07;13.50;;;9.43;;
34497;SDS011;20744;50.938;7.286;2022-08-19T12:05:36;18.20;;;12.38;;
34497;SDS011;20744;50.938;7.286;2022-08-19T12:08:03;12.20;;;9.32;;
34497;SDS011;20744;50.938;7.286;2022-08-19T12:10:31;15.25;;;9.25;;
34497;SDS011;20744;50.938;7.286;2022-08-19T12:12:58;14.95;;;9.80;;
34497;SDS011;20744;50.938;7.286;2022-08-19T12:15:26;17.15;;;9.00;;
34497;SDS011;20744;50.938;7.286;2022-08-19T12:17:55;23.27;;;10.63;;
34497;SDS011;20744;50.938;7.286;2022-08-19T12:20:23;16.67;;;9.90;;
34497;SDS011;20744;50.938;7.286;2022-08-19T12:22:51;11.68;;;7.43;;
34497;SDS011;20744;50.938;7.286;2022-08-19T12:25:18;14.25;;;8.18;;
34497;SDS011;20744;50.938;7.286;2022-08-19T12:27:46;12.63;;;8.30;;
34497;SDS011;20744;50.938;7.286;2022-08-19T12:30:14;13.00;;;8.65;;
34497;SDS011;20744;50.938;7.286;2022-08-19T12:32:42;15.60;;;7.25;;
34497;SDS011;20744;50.938;7.286;2022-08-19T12:35:10;12.10;;;8.68;;
34497;SDS011;20744;50.938;7.286;2022-08-19T12:37:38;14.20;;;9.27;;
34497;SDS011;20744;50.938;7.286;2022-08-19T12:40:09;11.85;;;9.90;;
34497;SDS011;20744;50.938;7.286;2022-08-19T12:42:37;9.82;;;7.38;;
34497;SDS011;20744;50.938;7.286;2022-08-19T12:45:07;15.98;;;9.25;;
34497;SDS011;20744;50.938;7.286;2022-08-19T12:47:35;11.35;;;8.05;;
34497;SDS011;20744;50.938;7.286;2022-08-19T12:50:03;12.05;;;8.43;;
34497;SDS011;20744;50.938;7.286;2022-08-19T12:52:35;16.17;;;8.77;;
34497;SDS011;20744;50.938;7.286;2022-08-19T12:55:04;14.57;;;8.02;;
34497;SDS011;20744;50.938;7.286;2022-08-19T12:57:31;13.38;;;7.47;;
34497;SDS011;20744;50.938;7.286;2022-08-19T13:00:02;10.85;;;7.70;;
34497;SDS011;20744;50.938;7.286;2022-08-19T13:02:31;11.77;;;6.85;;
34497;SDS011;20744;50.938;7.286;2022-08-19T13:05:00;8.68;;;5.72;;
34497;SDS011;20744;50.938;7.286;2022-08-19T13:07:27;12.00;;;7.38;;
34497;SDS011;20744;50.938;7.286;2022-08-19T13:09:57;13.13;;;7.00;;
34497;SDS011;20744;50.938;7.286;2022-08-19T13:12:24;10.18;;;7.07;;
34497;SDS011;20744;50.938;7.286;2022-08-19T13:14:51;10.55;;;7.43;;
34497;SDS011;20744;50.938;7.286;2022-08-19T13:17:18;11.35;;;6.97;;
34497;SDS011;20744;50.938;7.286;2022-08-19T13:19:46;10.73;;;6.90;;
34497;SDS011;20744;50.938;7.286;2022-08-19T13:22:14;10.05;;;6.35;;
34497;SDS011;20744;50.938;7.286;2022-08-19T13:24:41;10.13;;;5.88;;
34497;SDS011;20744;50.938;7.286;2022-08-19T13:27:09;11.60;;;5.68;;
34497;SDS011;20744;50.938;7.286;2022-08-19T13:29:37;15.27;;;5.50;;
34497;SDS011;20744;50.938;7.286;2022-08-19T13:32:23;17.90;;;6.35;;
34497;SDS011;20744;50.938;7.286;2022-08-19T13:35:08;7.25;;;5.47;;
34497;SDS011;20744;50.938;7.286;2022-08-19T13:37:35;8.77;;;4.88;;
34497;SDS011;20744;50.938;7.286;2022-08-19T13:40:10;8.45;;;5.18;;
34497;SDS011;20744;50.938;7.286;2022-08-19T13:42:41;7.75;;;5.30;;
34497;SDS011;20744;50.938;7.286;2022-08-19T13:45:11;9.93;;;5.07;;
34497;SDS011;20744;50.938;7.286;2022-08-19T13:47:40;12.00;;;6.55;;
34497;SDS011;20744;50.938;7.286;2022-08-19T13:50:08;8.30;;;5.57;;
34497;SDS011;20744;50.938;7.286;2022-08-19T13:52:35;7.70;;;6.13;;
34497;SDS011;20744;50.938;7.286;2022-08-19T13:55:03;8.50;;;5.22;;
34497;SDS011;20744;50.938;7.286;2022-08-19T13:57:31;9.95;;;6.40;;
34497;SDS011;20744;50.938;7.286;2022-08-19T13:59:59;7.80;;;6.43;;
34497;SDS011;20744;50.938;7.286;2022-08-19T14:02:27;10.85;;;5.60;;
34497;SDS011;20744;50.938;7.286;2022-08-19T14:04:54;9.02;;;6.43;;
34497;SDS011;20744;50.938;7.286;2022-08-19T14:07:22;9.98;;;6.20;;
34497;SDS011;20744;50.938;7.286;2022-08-19T14:09:49;8.25;;;6.38;;
34497;SDS011;20744;50.938;7.286;2022-08-19T14:12:18;11.05;;;6.03;;
34497;SDS011;20744;50.938;7.286;2022-08-19T14:14:46;9.30;;;6.40;;
34497;SDS011;20744;50.938;7.286;2022-08-19T14:17:15;10.07;;;5.70;;
34497;SDS011;20744;50.938;7.286;2022-08-19T14:19:42;12.52;;;6.13;;
34497;SDS011;20744;50.938;7.286;2022-08-19T14:22:09;10.07;;;6.05;;
34497;SDS011;20744;50.938;7.286;2022-08-19T14:24:37;11.02;;;5.03;;
34497;SDS011;20744;50.938;7.286;2022-08-19T14:27:05;8.32;;;6.07;;
34497;SDS011;20744;50.938;7.286;2022-08-19T14:29:32;10.57;;;5.30;;
34497;SDS011;20744;50.938;7.286;2022-08-19T14:32:00;10.38;;;6.10;;
34497;SDS011;20744;50.938;7.286;2022-08-19T14:34:28;9.85;;;5.78;;